createdAt,value
2017-10-19T00:00:19.889Z,18.77
2017-10-19T00:02:47.554Z,19.03
2017-10-19T00:05:15.219Z,21.40
2017-10-19T00:07:42.843Z,18.90
2017-10-19T00:10:11.278Z,18.13
2017-10-19T00:12:38.909Z,19.77
2017-10-19T00:15:06.572Z,20.50
2017-10-19T00:17:34.218Z,18.60
2017-10-19T00:20:01.845Z,17.20
2017-10-19T00:22:29.520Z,16.60
2017-10-19T00:24:57.924Z,18.03
2017-10-19T00:27:25.591Z,17.80
2017-10-19T00:29:53.215Z,17.40
2017-10-19T00:32:21.697Z,18.63
2017-10-19T00:34:50.096Z,18.17
2017-10-19T00:37:17.785Z,17.90
2017-10-19T00:39:45.425Z,17.57
2017-10-19T00:42:13.037Z,18.63
2017-10-19T00:44:40.720Z,18.73
2017-10-19T00:47:08.440Z,17.77
2017-10-19T00:49:36.134Z,17.87
2017-10-19T00:52:04.525Z,17.70
2017-10-19T00:54:33.000Z,18.53
2017-10-19T00:57:01.506Z,18.63
2017-10-19T00:59:29.231Z,17.40
2017-10-19T01:01:57.666Z,18.90
2017-10-19T01:04:25.353Z,18.57
2017-10-19T01:06:52.995Z,19.50
2017-10-19T01:09:20.660Z,18.90
2017-10-19T01:11:48.309Z,18.63
2017-10-19T01:14:15.983Z,17.37
2017-10-19T01:16:43.674Z,18.87
2017-10-19T01:19:12.145Z,18.30
2017-10-19T01:21:39.880Z,18.17
2017-10-19T01:24:07.575Z,17.40
2017-10-19T01:26:36.055Z,17.07
2017-10-19T01:29:04.502Z,17.80
2017-10-19T01:31:32.212Z,17.93
2017-10-19T01:33:59.887Z,17.67
2017-10-19T01:36:27.630Z,18.67
2017-10-19T01:38:56.096Z,17.07
2017-10-19T01:41:24.561Z,17.60
2017-10-19T01:43:52.257Z,16.77
2017-10-19T01:46:19.928Z,16.07
2017-10-19T01:48:47.623Z,15.97
2017-10-19T01:51:15.316Z,16.70
2017-10-19T01:53:43.037Z,14.53
2017-10-19T01:56:11.072Z,16.27
2017-10-19T01:58:39.037Z,16.50
2017-10-19T02:01:06.696Z,14.10
2017-10-19T02:03:34.355Z,16.57
2017-10-19T02:06:02.830Z,15.10
2017-10-19T02:08:31.232Z,15.33
2017-10-19T02:10:58.919Z,15.87
2017-10-19T02:13:26.539Z,14.87
2017-10-19T02:15:54.232Z,15.80
2017-10-19T02:18:21.928Z,15.07
2017-10-19T02:20:49.553Z,14.90
2017-10-19T02:23:17.196Z,14.17
2017-10-19T02:25:46.113Z,14.90
2017-10-19T02:28:13.731Z,14.03
2017-10-19T02:30:41.397Z,14.60
2017-10-19T02:33:09.028Z,13.47
2017-10-19T02:35:37.420Z,13.80
2017-10-19T02:38:05.837Z,13.93
2017-10-19T02:40:33.504Z,14.33
2017-10-19T02:43:01.155Z,14.03
2017-10-19T02:45:28.787Z,15.00
2017-10-19T02:47:56.565Z,14.00
2017-10-19T02:50:24.186Z,14.87
2017-10-19T02:52:52.612Z,14.47
2017-10-19T02:55:20.307Z,13.30
2017-10-19T02:57:47.988Z,14.93
2017-10-19T03:00:16.459Z,13.90
2017-10-19T03:02:44.840Z,14.10
2017-10-19T03:05:13.259Z,15.27
2017-10-19T03:07:40.944Z,13.83
2017-10-19T03:10:08.599Z,13.00
2017-10-19T03:12:36.440Z,11.87
2017-10-19T03:15:04.115Z,13.27
2017-10-19T03:17:31.728Z,13.10
2017-10-19T03:19:59.380Z,13.20
2017-10-19T03:22:27.768Z,12.63
2017-10-19T03:24:56.233Z,13.37
2017-10-19T03:27:24.680Z,14.50
2017-10-19T03:29:52.319Z,11.60
2017-10-19T03:32:19.937Z,13.30
2017-10-19T03:34:48.521Z,12.37
2017-10-19T03:37:16.933Z,13.40
2017-10-19T03:39:44.571Z,13.30
2017-10-19T03:42:13.007Z,12.33
2017-10-19T03:44:40.665Z,12.30
2017-10-19T03:47:08.378Z,12.87
2017-10-19T03:49:36.037Z,12.30
2017-10-19T03:52:03.780Z,12.23
2017-10-19T03:54:31.508Z,12.17
2017-10-19T03:56:59.175Z,12.70
2017-10-19T03:59:26.846Z,12.40
2017-10-19T04:01:55.307Z,12.43
2017-10-19T04:04:22.956Z,12.77
2017-10-19T04:06:50.581Z,13.50
2017-10-19T04:09:19.239Z,12.97
2017-10-19T04:11:47.631Z,12.90
2017-10-19T04:14:16.414Z,12.30
2017-10-19T04:16:45.282Z,11.77
2017-10-19T04:19:12.995Z,10.67
2017-10-19T04:21:40.621Z,12.87
2017-10-19T04:24:09.032Z,10.57
2017-10-19T04:26:36.695Z,13.10
2017-10-19T04:29:04.322Z,12.13
2017-10-19T04:31:32.740Z,11.20
2017-10-19T04:34:00.363Z,11.73
2017-10-19T04:36:28.787Z,12.07
2017-10-19T04:38:56.419Z,13.10
2017-10-19T04:41:24.082Z,11.23
2017-10-19T04:43:51.712Z,11.67
2017-10-19T04:46:20.125Z,11.60
2017-10-19T04:48:47.766Z,10.30
2017-10-19T04:51:15.472Z,11.30
2017-10-19T04:53:43.104Z,10.50
2017-10-19T04:56:10.734Z,11.47
2017-10-19T04:58:38.399Z,9.97
2017-10-19T05:01:06.030Z,10.07
2017-10-19T05:03:33.767Z,10.00
2017-10-19T05:06:01.426Z,9.93
2017-10-19T05:08:29.097Z,9.90
2017-10-19T05:10:56.873Z,9.50
2017-10-19T05:13:25.333Z,9.17
2017-10-19T05:15:53.017Z,10.13
2017-10-19T05:18:21.466Z,10.83
2017-10-19T05:20:49.150Z,12.00
2017-10-19T05:23:16.792Z,10.70
2017-10-19T05:25:44.452Z,10.60
2017-10-19T05:28:12.143Z,10.70
2017-10-19T05:30:39.844Z,10.60
2017-10-19T05:33:07.515Z,9.70
2017-10-19T05:35:35.136Z,9.70
2017-10-19T05:38:03.576Z,9.50
2017-10-19T05:40:31.211Z,9.90
2017-10-19T05:42:58.871Z,9.27
2017-10-19T05:45:26.504Z,9.60
2017-10-19T05:47:54.155Z,7.80
2017-10-19T05:50:22.637Z,8.90
2017-10-19T05:52:51.094Z,9.00
2017-10-19T05:55:18.729Z,9.37
2017-10-19T05:57:46.414Z,7.97
2017-10-19T06:00:14.089Z,8.53
2017-10-19T06:02:42.636Z,8.60
2017-10-19T06:05:10.322Z,7.70
2017-10-19T06:07:38.014Z,9.00
2017-10-19T06:10:05.653Z,9.20
2017-10-19T06:12:34.060Z,9.30
2017-10-19T06:15:01.731Z,9.20
2017-10-19T06:17:33.323Z,10.03
2017-10-19T06:20:00.977Z,8.73
2017-10-19T06:22:28.616Z,8.87
2017-10-19T06:24:56.280Z,9.83
2017-10-19T06:27:23.900Z,10.00
2017-10-19T06:29:51.584Z,10.13
2017-10-19T06:32:19.220Z,7.90
2017-10-19T06:34:46.895Z,7.67
2017-10-19T06:37:14.568Z,8.77
2017-10-19T06:39:42.224Z,7.47
2017-10-19T06:42:12.180Z,8.30
2017-10-19T06:44:39.817Z,10.07
2017-10-19T06:47:07.484Z,8.50
2017-10-19T06:49:35.376Z,7.50
2017-10-19T06:52:03.811Z,7.30
2017-10-19T06:54:31.435Z,6.73
2017-10-19T06:56:59.153Z,6.60
2017-10-19T06:59:32.484Z,5.90
2017-10-19T07:02:04.093Z,5.93
2017-10-19T07:07:12.615Z,5.60
2017-10-19T07:09:40.304Z,5.87
2017-10-19T07:12:07.936Z,5.07
2017-10-19T07:14:35.611Z,6.40
2017-10-19T07:17:03.275Z,5.40
2017-10-19T07:19:30.973Z,5.43
2017-10-19T07:21:59.400Z,6.23
2017-10-19T07:24:27.137Z,6.83
2017-10-19T07:26:54.824Z,5.03
2017-10-19T07:29:23.991Z,5.47
2017-10-19T07:31:51.640Z,5.43
2017-10-19T07:34:19.319Z,5.80
2017-10-19T07:36:46.944Z,5.97
2017-10-19T07:39:14.636Z,6.00
2017-10-19T07:41:42.508Z,5.30
2017-10-19T07:44:10.163Z,5.90
2017-10-19T07:46:37.790Z,6.00
2017-10-19T07:49:05.442Z,5.67
2017-10-19T07:51:33.844Z,5.43
2017-10-19T07:54:01.558Z,6.60
2017-10-19T07:56:29.259Z,5.07
2017-10-19T07:58:56.895Z,5.07
2017-10-19T08:01:24.544Z,6.60
2017-10-19T08:03:52.239Z,5.87
2017-10-19T08:06:20.689Z,5.87
2017-10-19T08:08:48.308Z,6.53
2017-10-19T08:11:15.965Z,6.03
2017-10-19T08:13:43.582Z,6.20
2017-10-19T08:16:12.076Z,6.70
2017-10-19T08:18:39.717Z,5.33
2017-10-19T08:21:08.101Z,5.63
2017-10-19T08:23:36.568Z,5.67
2017-10-19T08:26:04.193Z,5.90
2017-10-19T08:28:31.861Z,5.93
2017-10-19T08:30:59.479Z,5.27
2017-10-19T08:33:27.148Z,5.77
2017-10-19T08:35:54.783Z,5.50
2017-10-19T08:38:23.207Z,5.40
2017-10-19T08:40:50.824Z,5.40
2017-10-19T08:43:19.265Z,6.03
2017-10-19T08:45:46.906Z,6.27
2017-10-19T08:48:14.604Z,6.50
2017-10-19T08:50:42.227Z,5.40
2017-10-19T08:53:09.896Z,6.27
2017-10-19T08:55:37.512Z,6.47
2017-10-19T08:58:05.161Z,6.03
2017-10-19T09:00:32.783Z,5.90
2017-10-19T09:03:00.484Z,7.30
2017-10-19T09:05:28.135Z,5.80
2017-10-19T09:07:56.542Z,5.10
2017-10-19T09:10:24.324Z,5.07
2017-10-19T09:12:51.994Z,5.50
2017-10-19T09:15:19.730Z,5.13
2017-10-19T09:17:47.412Z,4.60
2017-10-19T09:20:15.086Z,5.80
2017-10-19T09:22:42.757Z,6.17
2017-10-19T09:25:10.469Z,5.03
2017-10-19T09:27:38.108Z,5.83
2017-10-19T09:30:06.535Z,5.60
2017-10-19T09:32:34.200Z,5.47
2017-10-19T09:35:01.817Z,6.60
2017-10-19T09:37:29.433Z,5.10
2017-10-19T09:39:57.153Z,5.10
2017-10-19T09:42:24.832Z,5.50
2017-10-19T09:44:52.589Z,6.40
2017-10-19T09:47:20.208Z,5.93
2017-10-19T09:49:48.609Z,5.43
2017-10-19T09:52:16.269Z,5.80
2017-10-19T09:54:43.971Z,5.27
2017-10-19T09:57:11.675Z,5.63
2017-10-19T09:59:39.344Z,5.00
2017-10-19T10:02:07.164Z,5.60
2017-10-19T10:04:34.845Z,5.30
2017-10-19T10:07:03.353Z,5.33
2017-10-19T10:09:31.020Z,4.90
2017-10-19T10:11:58.752Z,6.00
2017-10-19T10:14:28.119Z,5.27
2017-10-19T10:16:55.820Z,7.03
2017-10-19T10:19:23.643Z,4.90
2017-10-19T10:21:51.329Z,5.50
2017-10-19T10:24:19.858Z,5.97
2017-10-19T10:26:47.580Z,5.13
2017-10-19T10:29:16.114Z,4.43
2017-10-19T10:31:44.744Z,4.97
2017-10-19T10:34:13.141Z,5.67
2017-10-19T10:36:40.792Z,5.03
2017-10-19T10:39:09.171Z,5.00
2017-10-19T10:41:36.937Z,4.80
2017-10-19T10:44:04.561Z,4.80
2017-10-19T10:46:32.232Z,4.93
2017-10-19T10:49:00.653Z,4.60
2017-10-19T10:51:28.339Z,4.97
2017-10-19T10:53:56.319Z,4.87
2017-10-19T10:56:24.060Z,5.30
2017-10-19T10:58:51.725Z,5.07
2017-10-19T11:01:19.555Z,4.83
2017-10-19T11:03:47.303Z,4.23
2017-10-19T11:06:15.761Z,5.07
2017-10-19T11:08:43.450Z,4.47
2017-10-19T11:11:11.871Z,4.60
2017-10-19T11:13:39.512Z,4.50
2017-10-19T11:16:07.172Z,3.83
2017-10-19T11:18:34.811Z,4.50
2017-10-19T11:21:02.482Z,4.90
2017-10-19T11:23:30.104Z,4.80
2017-10-19T11:25:58.490Z,3.87
2017-10-19T11:28:26.908Z,4.40
2017-10-19T11:30:54.526Z,4.27
2017-10-19T11:33:23.034Z,4.50
2017-10-19T11:35:50.661Z,4.70
2017-10-19T11:38:19.228Z,4.70
2017-10-19T11:40:46.858Z,4.90
2017-10-19T11:43:14.533Z,4.97
2017-10-19T11:45:42.287Z,4.80
2017-10-19T11:48:09.945Z,4.60
2017-10-19T11:50:37.860Z,5.07
2017-10-19T11:53:05.598Z,5.30
2017-10-19T11:55:33.237Z,4.80
2017-10-19T11:58:00.891Z,3.87
2017-10-19T12:00:28.559Z,4.23
2017-10-19T12:02:56.267Z,4.27
2017-10-19T12:05:23.896Z,4.37
2017-10-19T12:07:51.525Z,4.60
2017-10-19T12:10:19.187Z,4.00
2017-10-19T12:12:46.804Z,4.40
2017-10-19T12:15:14.536Z,4.20
2017-10-19T12:17:42.151Z,4.07
2017-10-19T12:20:09.844Z,4.10
2017-10-19T12:22:37.471Z,4.37
2017-10-19T12:25:05.085Z,4.07
2017-10-19T12:27:32.720Z,3.37
2017-10-19T12:30:00.359Z,4.27
2017-10-19T12:32:28.007Z,3.50
2017-10-19T12:34:55.640Z,3.50
2017-10-19T12:37:24.052Z,3.50
2017-10-19T12:39:51.675Z,4.80
2017-10-19T12:42:20.108Z,4.20
2017-10-19T12:44:47.748Z,3.77
2017-10-19T12:47:15.370Z,3.50
2017-10-19T12:49:43.805Z,4.20
2017-10-19T12:52:11.438Z,4.40
2017-10-19T12:54:39.120Z,3.77
2017-10-19T12:57:06.746Z,3.83
2017-10-19T12:59:34.418Z,4.27
2017-10-19T13:02:02.053Z,4.60
2017-10-19T13:04:30.445Z,4.80
2017-10-19T13:06:58.106Z,4.03
2017-10-19T13:09:25.731Z,5.33
2017-10-19T13:11:53.380Z,4.83
2017-10-19T13:14:21.026Z,4.50
2017-10-19T13:16:48.675Z,4.13
2017-10-19T13:19:16.314Z,5.07
2017-10-19T13:21:44.488Z,4.60
2017-10-19T13:24:12.876Z,5.13
2017-10-19T13:26:40.506Z,5.60
2017-10-19T13:29:08.151Z,5.30
2017-10-19T13:31:36.604Z,5.10
2017-10-19T13:34:04.220Z,4.73
2017-10-19T13:36:31.857Z,5.10
2017-10-19T13:38:59.518Z,4.77
2017-10-19T13:41:27.975Z,5.17
2017-10-19T13:43:55.579Z,5.50
2017-10-19T13:46:23.211Z,4.57
2017-10-19T13:48:51.763Z,5.37
2017-10-19T13:51:19.404Z,4.00
2017-10-19T13:53:47.061Z,5.90
2017-10-19T13:56:15.737Z,4.83
2017-10-19T13:58:43.432Z,5.60
2017-10-19T14:01:11.081Z,5.10
2017-10-19T14:03:38.751Z,5.70
2017-10-19T14:06:06.383Z,5.77
2017-10-19T14:08:34.051Z,5.40
2017-10-19T14:11:01.663Z,5.87
2017-10-19T14:13:29.338Z,5.90
2017-10-19T14:15:56.975Z,6.57
2017-10-19T14:18:26.135Z,6.50
2017-10-19T14:20:53.754Z,6.60
2017-10-19T14:23:21.385Z,5.77
2017-10-19T14:25:49.048Z,6.90
2017-10-19T14:28:17.424Z,6.10
2017-10-19T14:30:45.835Z,7.30
2017-10-19T14:33:13.491Z,6.87
2017-10-19T14:35:41.281Z,5.83
2017-10-19T14:38:08.924Z,6.00
2017-10-19T14:40:36.540Z,5.87
2017-10-19T14:43:05.007Z,6.23
2017-10-19T14:45:32.633Z,5.90
2017-10-19T14:48:00.272Z,7.17
2017-10-19T14:50:27.894Z,6.97
2017-10-19T14:52:56.332Z,6.90
2017-10-19T14:55:23.960Z,6.70
2017-10-19T14:57:51.656Z,6.77
2017-10-19T15:00:19.303Z,7.40
2017-10-19T15:02:46.964Z,6.40
2017-10-19T15:05:14.576Z,5.80
2017-10-19T15:07:43.149Z,7.70
2017-10-19T15:10:10.868Z,7.53
2017-10-19T15:12:39.324Z,8.10
2017-10-19T15:15:06.948Z,7.67
2017-10-19T15:17:34.571Z,8.47
2017-10-19T15:20:02.220Z,8.07
2017-10-19T15:22:29.870Z,8.00
2017-10-19T15:24:57.546Z,7.10
2017-10-19T15:27:25.172Z,7.40
2017-10-19T15:29:52.800Z,7.03
2017-10-19T15:32:20.447Z,6.63
2017-10-19T15:34:48.130Z,8.30
2017-10-19T15:37:16.565Z,7.60
2017-10-19T15:39:44.170Z,8.80
2017-10-19T15:42:12.790Z,10.03
2017-10-19T15:44:40.420Z,9.20
2017-10-19T15:47:08.845Z,11.00
2017-10-19T15:49:36.507Z,10.63
2017-10-19T15:52:04.139Z,11.60
2017-10-19T15:54:31.831Z,10.33
2017-10-19T15:56:59.447Z,10.60
2017-10-19T15:59:27.932Z,11.27
2017-10-19T16:01:55.640Z,11.20
2017-10-19T16:04:23.264Z,11.20
2017-10-19T16:06:50.918Z,11.23
2017-10-19T16:09:18.554Z,10.33
2017-10-19T16:11:46.982Z,11.70
2017-10-19T16:14:14.608Z,11.57
2017-10-19T16:16:42.275Z,12.33
2017-10-19T16:19:09.927Z,10.80
2017-10-19T16:21:37.547Z,11.50
2017-10-19T16:24:05.200Z,13.37
2017-10-19T16:26:32.829Z,13.23
2017-10-19T16:29:00.536Z,13.63
2017-10-19T16:31:28.172Z,13.90
2017-10-19T16:33:55.817Z,10.73
2017-10-19T16:36:23.496Z,13.00
2017-10-19T16:38:51.177Z,11.93
2017-10-19T16:41:18.826Z,11.73
2017-10-19T16:43:46.454Z,11.90
2017-10-19T16:46:14.248Z,12.60
2017-10-19T16:48:41.885Z,11.80
2017-10-19T16:51:09.534Z,12.10
2017-10-19T16:53:37.206Z,11.77
2017-10-19T16:56:04.872Z,12.53
2017-10-19T16:58:32.517Z,12.70
2017-10-19T17:01:00.172Z,14.00
2017-10-19T17:03:27.794Z,13.77
2017-10-19T17:05:56.217Z,14.00
2017-10-19T17:08:23.853Z,16.70
2017-10-19T17:10:51.510Z,13.30
2017-10-19T17:13:19.160Z,15.87
2017-10-19T17:15:47.655Z,14.47
2017-10-19T17:18:15.344Z,15.20
2017-10-19T17:20:43.025Z,15.47
2017-10-19T17:23:10.709Z,14.80
2017-10-19T17:25:39.126Z,15.17
2017-10-19T17:28:06.804Z,15.63
2017-10-19T17:30:34.456Z,14.47
2017-10-19T17:33:02.092Z,15.00
2017-10-19T17:35:29.751Z,14.77
2017-10-19T17:37:57.375Z,12.20
2017-10-19T17:40:25.053Z,14.30
2017-10-19T17:42:53.486Z,15.20
2017-10-19T17:45:21.145Z,14.90
2017-10-19T17:47:48.768Z,16.57
2017-10-19T17:50:16.507Z,15.60
2017-10-19T17:52:44.903Z,14.83
2017-10-19T17:55:13.341Z,14.93
2017-10-19T17:57:41.021Z,15.40
2017-10-19T18:00:09.509Z,15.37
2017-10-19T18:02:37.950Z,14.87
2017-10-19T18:05:05.611Z,15.03
2017-10-19T18:07:33.417Z,15.27
2017-10-19T18:10:01.143Z,14.63
2017-10-19T18:12:28.853Z,14.30
2017-10-19T18:14:56.477Z,14.20
2017-10-19T18:17:24.156Z,13.43
2017-10-19T18:19:52.547Z,15.80
2017-10-19T18:22:20.180Z,15.60
2017-10-19T18:24:47.843Z,12.60
2017-10-19T18:27:16.263Z,15.37
2017-10-19T18:29:43.913Z,14.07
2017-10-19T18:32:11.552Z,13.13
2017-10-19T18:34:40.503Z,14.53
2017-10-19T18:37:08.215Z,15.00
2017-10-19T18:39:36.624Z,15.53
2017-10-19T18:42:04.315Z,15.70
2017-10-19T18:44:31.976Z,14.37
2017-10-19T18:46:59.657Z,14.73
2017-10-19T18:49:28.053Z,14.60
2017-10-19T18:51:56.617Z,14.13
2017-10-19T18:54:25.015Z,14.80
2017-10-19T18:56:52.665Z,13.23
2017-10-19T18:59:21.084Z,12.33
2017-10-19T19:01:48.712Z,12.23
2017-10-19T19:04:16.369Z,13.87
2017-10-19T19:06:44.003Z,14.17
2017-10-19T19:09:11.711Z,14.53
2017-10-19T19:11:39.328Z,13.70
2017-10-19T19:14:07.720Z,13.93
2017-10-19T19:16:36.155Z,12.67
2017-10-19T19:19:03.780Z,13.60
2017-10-19T19:21:31.447Z,13.20
2017-10-19T19:23:59.072Z,17.77
2017-10-19T19:26:28.742Z,13.43
2017-10-19T19:28:56.369Z,14.93
2017-10-19T19:31:23.991Z,15.50
2017-10-19T19:33:52.441Z,14.33
2017-10-19T19:36:20.102Z,13.47
2017-10-19T19:38:47.769Z,13.73
2017-10-19T19:41:15.431Z,12.47
2017-10-19T19:43:43.107Z,13.57
2017-10-19T19:46:10.734Z,12.90
2017-10-19T19:48:38.377Z,12.77
2017-10-19T19:51:06.058Z,13.67
2017-10-19T19:53:33.720Z,12.90
2017-10-19T19:56:01.374Z,13.40
2017-10-19T19:58:29.028Z,12.77
2017-10-19T20:00:56.689Z,14.07
2017-10-19T20:03:24.316Z,13.97
2017-10-19T20:05:51.991Z,13.20
2017-10-19T20:08:19.613Z,13.00
2017-10-19T20:10:48.065Z,15.33
2017-10-19T20:13:15.764Z,13.07
2017-10-19T20:15:43.443Z,14.43
2017-10-19T20:18:11.105Z,14.60
2017-10-19T20:20:38.743Z,14.87
2017-10-19T20:23:07.169Z,15.97
2017-10-19T20:25:34.817Z,14.90
2017-10-19T20:28:02.520Z,14.67
2017-10-19T20:30:30.153Z,15.73
2017-10-19T20:32:57.816Z,14.90
2017-10-19T20:35:25.458Z,15.17
2017-10-19T20:37:53.104Z,15.27
2017-10-19T20:40:20.755Z,15.83
2017-10-19T20:42:48.440Z,14.50
2017-10-19T20:45:16.072Z,15.00
2017-10-19T20:47:43.705Z,16.57
2017-10-19T20:50:11.366Z,15.00
2017-10-19T20:52:39.796Z,15.13
2017-10-19T20:55:07.445Z,14.70
2017-10-19T20:57:35.085Z,14.73
2017-10-19T21:00:02.785Z,14.30
2017-10-19T21:02:30.401Z,16.13
2017-10-19T21:04:58.778Z,15.33
2017-10-19T21:07:27.199Z,13.53
2017-10-19T21:09:54.839Z,13.10
2017-10-19T21:12:22.500Z,14.23
2017-10-19T21:14:50.128Z,13.43
2017-10-19T21:17:18.522Z,14.50
2017-10-19T21:19:46.170Z,16.30
2017-10-19T21:22:14.547Z,15.37
2017-10-19T21:24:42.999Z,16.50
2017-10-19T21:27:10.637Z,17.00
2017-10-19T21:29:38.309Z,15.57
2017-10-19T21:32:05.934Z,15.73
2017-10-19T21:34:33.620Z,16.07
2017-10-19T21:37:01.249Z,14.80
2017-10-19T21:39:28.859Z,15.33
2017-10-19T21:41:56.520Z,16.57
2017-10-19T21:44:24.220Z,14.27
2017-10-19T21:46:51.868Z,15.93
2017-10-19T21:49:20.266Z,15.30
2017-10-19T21:51:47.935Z,16.37
2017-10-19T21:54:15.571Z,16.00
2017-10-19T21:56:43.948Z,15.70
2017-10-19T21:59:11.609Z,14.70
2017-10-19T22:01:39.220Z,16.57
2017-10-19T22:04:06.866Z,14.63
2017-10-19T22:06:34.494Z,15.70
2017-10-19T22:09:02.193Z,15.70
2017-10-19T22:11:29.847Z,15.70
2017-10-19T22:13:57.544Z,17.63
2017-10-19T22:16:25.184Z,16.50
2017-10-19T22:18:52.821Z,15.23
2017-10-19T22:21:20.481Z,16.40
2017-10-19T22:23:48.097Z,15.83
2017-10-19T22:26:16.507Z,16.37
2017-10-19T22:28:44.116Z,19.60
2017-10-19T22:31:11.810Z,17.50
2017-10-19T22:33:39.457Z,18.07
2017-10-19T22:36:07.087Z,15.90
2017-10-19T22:38:34.755Z,16.53
2017-10-19T22:41:02.386Z,15.40
2017-10-19T22:43:30.042Z,17.30
2017-10-19T22:45:58.433Z,17.20
2017-10-19T22:48:26.096Z,17.97
2017-10-19T22:50:53.720Z,18.20
2017-10-19T22:53:21.376Z,18.27
2017-10-19T22:55:49.003Z,18.50
2017-10-19T22:58:16.639Z,18.43
2017-10-19T23:00:44.298Z,18.30
2017-10-19T23:03:11.928Z,18.37
2017-10-19T23:05:39.602Z,17.60
2017-10-19T23:08:07.216Z,17.97
2017-10-19T23:10:35.689Z,17.17
2017-10-19T23:13:04.080Z,20.07
2017-10-19T23:15:31.696Z,18.97
2017-10-19T23:17:59.337Z,19.27
2017-10-19T23:20:26.963Z,19.73
2017-10-19T23:22:54.660Z,18.53
2017-10-19T23:25:23.203Z,18.80
2017-10-19T23:27:50.823Z,21.43
2017-10-19T23:30:18.477Z,19.80
2017-10-19T23:32:46.135Z,20.33
2017-10-19T23:35:13.788Z,19.70
2017-10-19T23:37:41.465Z,19.20
2017-10-19T23:40:09.151Z,18.20
2017-10-19T23:42:37.560Z,17.23
2017-10-19T23:45:05.207Z,18.10
2017-10-19T23:47:32.877Z,18.27
2017-10-19T23:50:00.504Z,18.90
2017-10-19T23:52:28.970Z,20.30
2017-10-19T23:54:56.595Z,19.23
2017-10-19T23:57:24.267Z,21.10
2017-10-19T23:59:51.939Z,19.50
